createdAt,value
2018-12-02T00:02:21.197Z,7.18
2018-12-02T00:04:53.623Z,7.20
2018-12-02T00:07:26.781Z,7.17
2018-12-02T00:09:57.871Z,7.16
2018-12-02T00:12:32.409Z,7.36
2018-12-02T00:15:03.586Z,7.24
2018-12-02T00:17:35.483Z,7.25
2018-12-02T00:20:09.181Z,7.28
2018-12-02T00:22:41.036Z,7.24
2018-12-02T00:25:14.848Z,7.20
2018-12-02T00:27:52.871Z,7.15
2018-12-02T00:30:28.442Z,7.37
2018-12-02T00:33:00.128Z,7.21
2018-12-02T00:35:31.797Z,7.18
2018-12-02T00:38:03.420Z,7.36
2018-12-02T00:40:34.360Z,7.27
2018-12-02T00:43:05.567Z,7.20
2018-12-02T00:45:37.240Z,7.20
2018-12-02T00:48:09.341Z,7.09
2018-12-02T00:50:47.849Z,7.23
2018-12-02T00:53:18.769Z,7.24
2018-12-02T00:55:56.278Z,7.28
2018-12-02T00:58:26.923Z,7.18
2018-12-02T01:00:57.697Z,7.17
2018-12-02T01:03:28.511Z,7.27
2018-12-02T01:06:00.581Z,7.11
2018-12-02T01:08:31.385Z,7.08
2018-12-02T01:11:02.263Z,7.11
2018-12-02T01:13:38.159Z,7.16
2018-12-02T01:16:08.941Z,7.27
2018-12-02T01:18:40.561Z,7.32
2018-12-02T01:21:11.421Z,7.35
2018-12-02T01:23:42.904Z,7.38
2018-12-02T01:26:22.951Z,7.36
2018-12-02T01:28:54.230Z,7.22
2018-12-02T01:31:25.288Z,7.27
2018-12-02T01:33:57.869Z,7.20
2018-12-02T01:36:28.556Z,7.25
2018-12-02T01:38:59.825Z,7.34
2018-12-02T01:41:31.763Z,7.31
2018-12-02T01:44:03.142Z,7.27
2018-12-02T01:46:34.051Z,7.18
2018-12-02T01:49:05.077Z,7.25
2018-12-02T01:51:38.245Z,7.42
2018-12-02T01:54:10.852Z,7.42
2018-12-02T01:56:44.665Z,7.43
2018-12-02T01:59:18.635Z,7.41
2018-12-02T02:01:51.656Z,7.42
2018-12-02T02:04:25.911Z,7.46
2018-12-02T02:06:57.143Z,7.60
2018-12-02T02:09:29.930Z,7.58
2018-12-02T02:12:01.801Z,7.60
2018-12-02T02:14:36.981Z,7.59
2018-12-02T02:17:08.460Z,7.54
2018-12-02T02:19:39.162Z,7.57
2018-12-02T02:22:11.665Z,7.49
2018-12-02T02:24:43.178Z,7.48
2018-12-02T02:27:55.139Z,7.57
2018-12-02T02:30:30.718Z,7.52
2018-12-02T02:33:02.609Z,7.44
2018-12-02T02:35:34.686Z,7.50
2018-12-02T02:38:05.711Z,7.46
2018-12-02T02:40:36.529Z,7.38
2018-12-02T02:43:08.568Z,7.43
2018-12-02T02:45:39.705Z,7.32
2018-12-02T02:48:10.525Z,7.43
2018-12-02T02:50:43.244Z,7.27
2018-12-02T02:53:16.471Z,7.19
2018-12-02T02:55:47.148Z,7.28
2018-12-02T02:58:19.332Z,7.22
2018-12-02T03:00:52.144Z,7.48
2018-12-02T03:03:23.681Z,7.54
2018-12-02T03:05:56.999Z,7.63
2018-12-02T03:08:27.941Z,7.73
2018-12-02T03:11:00.106Z,7.61
2018-12-02T03:13:33.219Z,7.55
2018-12-02T03:18:43.015Z,7.60
2018-12-02T03:21:13.832Z,7.64
2018-12-02T03:23:44.810Z,7.57
2018-12-02T03:26:28.347Z,7.59
2018-12-02T03:28:59.460Z,7.69
2018-12-02T03:31:30.762Z,7.60
2018-12-02T03:34:04.652Z,7.65
2018-12-02T03:36:36.455Z,7.51
2018-12-02T03:39:09.995Z,7.53
2018-12-02T03:41:41.607Z,7.52
2018-12-02T03:44:14.101Z,7.49
2018-12-02T03:46:46.844Z,7.43
2018-12-02T03:49:22.003Z,7.50
2018-12-02T03:51:54.324Z,7.41
2018-12-02T03:54:25.451Z,7.44
2018-12-02T03:57:01.210Z,7.42
2018-12-02T03:59:31.924Z,7.45
2018-12-02T04:02:04.285Z,7.35
2018-12-02T04:04:35.867Z,7.27
2018-12-02T04:07:06.863Z,7.32
2018-12-02T04:09:39.726Z,7.48
2018-12-02T04:12:10.582Z,7.31
2018-12-02T04:14:41.966Z,7.32
2018-12-02T04:17:34.423Z,7.32
2018-12-02T04:20:06.111Z,7.32
2018-12-02T04:22:49.658Z,7.33
2018-12-02T04:25:26.390Z,7.39
2018-12-02T04:27:57.696Z,7.36
2018-12-02T04:30:28.748Z,7.34
2018-12-02T04:32:59.710Z,7.61
2018-12-02T04:35:30.415Z,7.59
2018-12-02T04:38:01.075Z,7.49
2018-12-02T04:40:32.008Z,7.48
2018-12-02T04:43:02.722Z,7.57
2018-12-02T04:45:34.164Z,7.55
2018-12-02T04:48:04.949Z,7.64
2018-12-02T04:50:35.962Z,7.65
2018-12-02T04:53:07.465Z,7.53
2018-12-02T04:55:38.316Z,7.56
2018-12-02T04:58:08.945Z,7.62
2018-12-02T05:00:40.632Z,7.55
2018-12-02T05:03:11.791Z,7.46
2018-12-02T05:05:42.605Z,7.46
2018-12-02T05:08:19.854Z,7.45
2018-12-02T05:10:51.270Z,7.42
2018-12-02T05:13:22.019Z,7.41
2018-12-02T05:15:54.062Z,7.48
2018-12-02T05:18:24.753Z,7.55
2018-12-02T05:20:55.606Z,7.55
2018-12-02T05:23:26.458Z,7.46
2018-12-02T05:25:57.577Z,7.50
2018-12-02T05:28:28.367Z,7.46
2018-12-02T05:30:59.059Z,7.55
2018-12-02T05:33:29.722Z,7.61
2018-12-02T05:36:01.250Z,7.73
2018-12-02T05:38:32.071Z,7.70
2018-12-02T05:41:07.401Z,7.58
2018-12-02T05:43:38.577Z,7.54
2018-12-02T05:46:13.743Z,7.52
2018-12-02T05:48:45.959Z,7.61
2018-12-02T05:51:16.741Z,7.73
2018-12-02T05:53:48.739Z,7.70
2018-12-02T05:56:20.012Z,7.84
2018-12-02T05:58:51.349Z,7.71
2018-12-02T06:01:22.559Z,7.59
2018-12-02T06:03:56.402Z,7.50
2018-12-02T06:06:27.150Z,7.32
2018-12-02T06:08:58.209Z,7.20
2018-12-02T06:11:29.320Z,7.14
2018-12-02T06:14:00.068Z,7.06
2018-12-02T06:16:30.938Z,7.00
2018-12-02T06:19:02.286Z,6.98
2018-12-02T06:21:33.155Z,7.04
2018-12-02T06:24:03.963Z,6.90
2018-12-02T06:26:34.680Z,6.92
2018-12-02T06:29:07.442Z,6.91
2018-12-02T06:34:43.457Z,6.82
2018-12-02T06:37:15.329Z,6.80
2018-12-02T06:39:46.084Z,6.75
2018-12-02T06:42:20.357Z,6.83
2018-12-02T06:44:51.201Z,6.78
2018-12-02T06:47:21.913Z,6.76
2018-12-02T06:49:54.028Z,6.82
2018-12-02T06:52:24.921Z,6.74
2018-12-02T06:55:03.557Z,6.72
2018-12-02T06:58:16.166Z,6.76
2018-12-02T07:03:19.911Z,6.72
2018-12-02T07:06:03.256Z,6.71
2018-12-02T07:08:35.898Z,6.72
2018-12-02T07:11:09.219Z,6.69
2018-12-02T07:14:14.425Z,6.72
2018-12-02T07:16:47.206Z,6.71
2018-12-02T07:19:33.609Z,6.67
2018-12-02T07:22:11.856Z,6.71
2018-12-02T07:24:46.586Z,6.75
2018-12-02T07:27:22.397Z,6.75
2018-12-02T07:29:56.900Z,6.88
2018-12-02T07:32:31.017Z,6.78
2018-12-02T07:35:01.938Z,6.82
2018-12-02T07:37:33.054Z,6.78
2018-12-02T07:40:14.246Z,6.77
2018-12-02T07:42:45.083Z,6.88
2018-12-02T07:45:16.301Z,6.85
2018-12-02T07:47:47.128Z,6.92
2018-12-02T07:50:17.900Z,6.92
2018-12-02T07:52:48.612Z,7.01
2018-12-02T07:55:19.592Z,7.01
2018-12-02T07:57:50.482Z,7.04
2018-12-02T08:00:21.866Z,7.11
2018-12-02T08:02:52.652Z,7.15
2018-12-02T08:05:24.456Z,7.24
2018-12-02T08:08:14.065Z,7.21
2018-12-02T08:10:44.979Z,7.32
2018-12-02T08:13:15.721Z,7.32
2018-12-02T08:15:46.762Z,7.34
2018-12-02T08:18:19.039Z,7.43
2018-12-02T08:20:50.571Z,7.53
2018-12-02T08:23:22.106Z,7.63
2018-12-02T08:25:53.235Z,7.69
2018-12-02T08:28:24.047Z,7.71
2018-12-02T08:30:54.766Z,7.78
2018-12-02T08:36:29.383Z,7.94
2018-12-02T08:39:01.616Z,7.97
2018-12-02T08:41:33.596Z,8.00
2018-12-02T08:44:04.937Z,8.09
2018-12-02T08:46:35.740Z,8.10
2018-12-02T08:49:06.879Z,8.27
2018-12-02T08:51:37.976Z,8.22
2018-12-02T08:54:08.989Z,8.25
2018-12-02T08:56:40.068Z,8.32
2018-12-02T09:06:36.899Z,8.55
2018-12-02T09:09:12.393Z,8.49
2018-12-02T09:11:43.430Z,8.64
2018-12-02T09:14:14.153Z,8.57
2018-12-02T09:16:45.362Z,8.57
2018-12-02T09:19:16.050Z,8.53
2018-12-02T09:21:46.775Z,8.72
2018-12-02T09:24:18.469Z,8.68
2018-12-02T09:26:49.355Z,8.70
2018-12-02T09:29:20.118Z,8.89
2018-12-02T09:31:51.256Z,8.88
2018-12-02T09:34:22.017Z,8.92
2018-12-02T09:36:57.846Z,8.98
2018-12-02T09:49:52.792Z,9.16
2018-12-02T09:55:26.754Z,9.20
2018-12-02T09:58:05.218Z,9.29
2018-12-02T10:00:39.027Z,9.36
2018-12-02T10:03:10.650Z,9.34
2018-12-02T10:05:43.672Z,9.37
2018-12-02T10:08:15.484Z,9.46
2018-12-02T10:10:46.753Z,9.45
2018-12-02T10:13:19.339Z,9.46
2018-12-02T10:15:52.559Z,9.51
2018-12-02T10:18:25.811Z,9.45
2018-12-02T10:20:59.784Z,9.36
2018-12-02T10:23:33.842Z,9.48
2018-12-02T10:26:07.072Z,9.42
2018-12-02T10:28:39.097Z,9.47
2018-12-02T10:31:11.367Z,9.47
2018-12-02T10:33:47.439Z,9.57
2018-12-02T10:36:21.576Z,9.56
2018-12-02T10:38:52.341Z,9.69
2018-12-02T10:41:23.353Z,9.67
2018-12-02T10:44:04.401Z,9.64
2018-12-02T10:46:44.113Z,9.64
2018-12-02T10:49:15.666Z,9.71
2018-12-02T10:51:46.528Z,9.73
2018-12-02T10:55:34.700Z,9.86
2018-12-02T11:01:03.498Z,9.86
2018-12-02T11:03:34.512Z,9.91
2018-12-02T11:06:05.757Z,10.00
2018-12-02T11:08:37.415Z,10.20
2018-12-02T11:11:13.729Z,10.22
2018-12-02T11:13:44.573Z,10.24
2018-12-02T11:16:20.095Z,10.36
2018-12-02T11:18:51.329Z,10.47
2018-12-02T11:21:22.135Z,10.62
2018-12-02T11:23:53.389Z,10.80
2018-12-02T11:26:57.541Z,10.99
2018-12-02T11:29:28.663Z,11.12
2018-12-02T11:31:59.643Z,11.16
2018-12-02T11:34:30.729Z,11.17
2018-12-02T11:37:01.578Z,11.33
2018-12-02T11:39:32.625Z,11.41
2018-12-02T11:42:03.973Z,11.41
2018-12-02T11:44:35.557Z,11.47
2018-12-02T11:47:06.878Z,11.48
2018-12-02T11:49:38.063Z,11.56
2018-12-02T11:52:09.131Z,11.66
2018-12-02T11:57:27.933Z,11.95
2018-12-02T11:59:58.882Z,12.00
2018-12-02T12:02:30.043Z,12.01
2018-12-02T12:05:01.206Z,12.06
2018-12-02T12:07:32.231Z,12.01
2018-12-02T12:10:03.459Z,12.05
2018-12-02T12:12:35.715Z,11.96
2018-12-02T12:15:08.327Z,12.07
2018-12-02T12:17:39.875Z,12.25
2018-12-02T12:20:16.078Z,12.43
2018-12-02T12:22:47.070Z,12.55
2018-12-02T12:25:18.023Z,12.70
2018-12-02T12:27:49.120Z,12.71
2018-12-02T12:30:29.543Z,12.73
2018-12-02T12:33:01.202Z,12.84
2018-12-02T12:35:33.138Z,12.83
2018-12-02T12:38:04.259Z,12.91
2018-12-02T12:40:37.791Z,12.97
2018-12-02T12:43:14.915Z,13.04
2018-12-02T12:45:45.808Z,13.07
2018-12-02T12:48:17.308Z,13.00
2018-12-02T12:50:48.499Z,13.01
2018-12-02T12:53:19.668Z,12.60
2018-12-02T12:55:51.354Z,13.11
2018-12-02T12:58:22.388Z,13.18
2018-12-02T13:01:20.741Z,13.13
2018-12-02T13:04:20.092Z,13.04
2018-12-02T13:06:51.113Z,12.98
2018-12-02T13:09:22.224Z,12.85
2018-12-02T13:11:53.623Z,12.85
2018-12-02T13:14:24.809Z,12.74
2018-12-02T13:16:56.123Z,12.78
2018-12-02T13:19:27.063Z,12.84
2018-12-02T13:21:58.382Z,12.74
2018-12-02T13:24:29.147Z,12.71
2018-12-02T13:27:00.006Z,12.64
2018-12-02T13:29:31.012Z,12.62
2018-12-02T13:32:02.200Z,12.57
2018-12-02T13:34:33.021Z,12.53
2018-12-02T13:37:04.092Z,12.52
2018-12-02T13:39:35.229Z,12.50
2018-12-02T13:42:06.231Z,12.51
2018-12-02T13:44:37.190Z,12.57
2018-12-02T13:47:08.105Z,12.52
2018-12-02T13:49:39.182Z,12.50
2018-12-02T13:52:10.174Z,12.49
2018-12-02T13:54:41.809Z,12.56
2018-12-02T13:57:12.777Z,12.59
2018-12-02T13:59:44.849Z,12.56
2018-12-02T14:02:16.279Z,12.61
2018-12-02T14:04:47.551Z,12.69
2018-12-02T14:07:18.535Z,12.69
2018-12-02T14:09:49.772Z,12.72
2018-12-02T14:12:20.700Z,12.74
2018-12-02T14:14:51.894Z,12.72
2018-12-02T14:17:24.266Z,12.64
2018-12-02T14:19:55.195Z,12.63
2018-12-02T14:22:26.092Z,12.59
2018-12-02T14:25:02.739Z,12.51
2018-12-02T14:27:29.845Z,12.50
2018-12-02T14:30:01.337Z,12.58
2018-12-02T14:32:32.681Z,12.64
2018-12-02T14:35:03.944Z,12.60
2018-12-02T14:37:35.315Z,12.65
2018-12-02T14:40:14.450Z,12.60
2018-12-02T14:42:46.091Z,12.52
2018-12-02T14:45:18.326Z,12.50
2018-12-02T14:47:50.187Z,12.49
2018-12-02T14:50:23.360Z,12.51
2018-12-02T14:52:57.390Z,12.51
2018-12-02T14:55:28.867Z,12.41
2018-12-02T14:58:04.341Z,12.36
2018-12-02T15:00:35.665Z,12.39
2018-12-02T15:03:14.418Z,12.43
2018-12-02T15:05:45.413Z,12.40
2018-12-02T15:08:16.486Z,12.40
2018-12-02T15:10:47.814Z,12.32
2018-12-02T15:13:19.825Z,12.15
2018-12-02T15:15:52.316Z,12.04
2018-12-02T15:18:23.396Z,11.88
2018-12-02T15:20:54.853Z,11.75
2018-12-02T15:23:27.554Z,11.70
2018-12-02T15:25:58.566Z,11.72
2018-12-02T15:28:29.774Z,11.77
2018-12-02T15:31:00.758Z,11.71
2018-12-02T15:33:31.948Z,11.65
2018-12-02T15:36:08.134Z,11.72
2018-12-02T15:38:39.317Z,11.69
2018-12-02T15:41:17.197Z,11.67
2018-12-02T15:43:49.860Z,11.68
2018-12-02T15:46:21.416Z,11.63
2018-12-02T15:49:08.081Z,11.64
2018-12-02T15:51:39.343Z,11.71
2018-12-02T15:54:10.367Z,11.70
2018-12-02T15:56:42.288Z,11.75
2018-12-02T15:59:16.754Z,11.72
2018-12-02T16:01:48.363Z,11.70
2018-12-02T16:04:19.934Z,11.77
2018-12-02T16:06:50.957Z,11.76
2018-12-02T16:09:22.410Z,11.77
2018-12-02T16:11:55.819Z,11.78
2018-12-02T16:15:18.237Z,11.85
2018-12-02T16:17:50.819Z,11.88
2018-12-02T16:20:25.547Z,11.90
2018-12-02T16:22:56.811Z,11.82
2018-12-02T16:25:28.048Z,11.87
2018-12-02T16:27:59.971Z,11.84
2018-12-02T16:33:08.836Z,11.87
2018-12-02T16:35:40.001Z,11.91
2018-12-02T16:38:12.264Z,11.85
2018-12-02T16:40:44.002Z,11.76
2018-12-02T16:43:14.980Z,11.72
2018-12-02T16:45:46.338Z,11.85
2018-12-02T16:48:27.439Z,11.81
2018-12-02T16:50:59.191Z,11.74
2018-12-02T16:53:39.073Z,11.79
2018-12-02T16:56:13.312Z,11.70
2018-12-02T16:59:20.195Z,11.65
2018-12-02T17:02:04.948Z,11.78
2018-12-02T17:04:31.659Z,11.85
2018-12-02T17:07:04.451Z,11.79
2018-12-02T17:09:37.855Z,11.69
2018-12-02T17:17:39.328Z,11.66
2018-12-02T17:20:18.776Z,11.70
2018-12-02T17:22:51.584Z,11.62
2018-12-02T17:25:27.694Z,11.66
2018-12-02T17:27:59.113Z,11.82
2018-12-02T17:30:38.763Z,11.77
2018-12-02T17:33:10.279Z,11.83
2018-12-02T17:35:41.429Z,11.83
2018-12-02T17:38:12.338Z,11.81
2018-12-02T17:40:45.121Z,11.79
2018-12-02T17:43:26.938Z,11.84
2018-12-02T17:45:57.957Z,11.85
2018-12-02T17:48:29.197Z,11.96
2018-12-02T17:51:00.412Z,11.88
2018-12-02T17:53:31.644Z,11.78
2018-12-02T17:56:02.825Z,11.71
2018-12-02T17:58:33.805Z,11.69
2018-12-02T18:01:05.262Z,11.70
2018-12-02T18:03:36.937Z,11.72
2018-12-02T18:06:10.283Z,11.68
2018-12-02T18:08:42.585Z,11.65
2018-12-02T18:11:13.472Z,11.75
2018-12-02T18:13:44.898Z,11.71
2018-12-02T18:16:15.957Z,11.73
2018-12-02T18:18:47.248Z,11.78
2018-12-02T18:21:18.488Z,11.76
2018-12-02T18:23:49.681Z,11.77
2018-12-02T18:26:21.025Z,11.65
2018-12-02T18:31:45.787Z,11.63
2018-12-02T18:34:20.511Z,11.55
2018-12-02T18:36:52.446Z,11.53
2018-12-02T18:39:30.033Z,11.44
2018-12-02T18:42:07.253Z,11.34
2018-12-02T18:44:40.908Z,11.29
2018-12-02T18:47:21.340Z,11.24
2018-12-02T18:49:54.405Z,11.17
2018-12-02T18:52:29.934Z,11.04
2018-12-02T18:55:04.196Z,10.99
2018-12-02T18:57:50.284Z,11.04
2018-12-02T19:00:29.582Z,11.02
2018-12-02T19:03:01.417Z,11.04
2018-12-02T19:05:34.217Z,11.01
2018-12-02T19:08:09.499Z,11.04
2018-12-02T19:10:42.886Z,11.06
2018-12-02T19:13:17.546Z,11.13
2018-12-02T19:15:48.725Z,11.05
2018-12-02T19:18:21.296Z,11.02
2018-12-02T19:20:56.166Z,11.02
2018-12-02T19:23:30.838Z,11.03
2018-12-02T19:26:03.735Z,11.04
2018-12-02T19:28:39.063Z,11.09
2018-12-02T19:31:17.596Z,11.03
2018-12-02T19:34:00.140Z,11.04
2018-12-02T19:36:48.979Z,11.03
2018-12-02T19:39:21.945Z,11.05
2018-12-02T19:41:53.746Z,11.05
2018-12-02T19:47:23.758Z,11.00
2018-12-02T19:50:04.821Z,11.11
2018-12-02T19:52:41.790Z,11.09
2018-12-02T19:55:25.837Z,11.04
2018-12-02T19:57:59.836Z,10.96
2018-12-02T20:00:40.151Z,10.85
2018-12-02T20:03:18.811Z,11.03
2018-12-02T20:09:04.173Z,11.00
2018-12-02T20:11:35.663Z,11.03
2018-12-02T20:14:14.906Z,11.00
2018-12-02T20:16:46.018Z,10.99
2018-12-02T20:19:22.150Z,10.92
2018-12-02T20:21:53.128Z,10.86
2018-12-02T20:24:32.824Z,10.91
2018-12-02T20:27:08.348Z,10.90
2018-12-02T20:29:40.351Z,11.01
2018-12-02T20:32:13.193Z,11.04
2018-12-02T20:34:53.472Z,11.03
2018-12-02T20:37:24.420Z,11.00
2018-12-02T20:39:55.302Z,10.97
2018-12-02T20:42:26.483Z,11.00
2018-12-02T20:44:57.324Z,10.99
2018-12-02T20:47:29.326Z,11.01
2018-12-02T20:50:00.964Z,10.92
2018-12-02T20:52:33.383Z,10.88
2018-12-02T20:55:04.422Z,10.88
2018-12-02T20:57:35.480Z,10.91
2018-12-02T21:00:10.756Z,10.89
2018-12-02T21:02:41.756Z,10.78
2018-12-02T21:05:14.787Z,10.79
2018-12-02T21:07:46.004Z,10.74
2018-12-02T21:10:19.185Z,10.69
2018-12-02T21:12:49.967Z,10.70
2018-12-02T21:15:21.493Z,10.70
2018-12-02T21:17:55.016Z,10.68
2018-12-02T21:20:25.955Z,10.61
2018-12-02T21:23:00.345Z,10.66
2018-12-02T21:25:31.701Z,10.67
2018-12-02T21:28:03.011Z,10.59
2018-12-02T21:30:34.464Z,10.65
2018-12-02T21:33:05.682Z,10.65
2018-12-02T21:35:36.543Z,10.71
2018-12-02T21:38:09.767Z,10.64
2018-12-02T21:40:43.226Z,10.59
2018-12-02T21:43:14.672Z,10.52
2018-12-02T21:45:45.505Z,10.51
2018-12-02T21:48:24.690Z,10.53
2018-12-02T21:51:02.711Z,10.52
2018-12-02T21:53:37.862Z,10.54
2018-12-02T21:56:09.160Z,10.53
2018-12-02T21:58:40.528Z,10.65
2018-12-02T22:01:16.274Z,10.67
2018-12-02T22:03:48.736Z,10.67
2018-12-02T22:06:19.753Z,10.61
2018-12-02T22:08:50.717Z,10.52
2018-12-02T22:11:22.336Z,10.61
2018-12-02T22:13:53.368Z,10.60
2018-12-02T22:16:25.042Z,10.59
2018-12-02T22:18:56.004Z,10.64
2018-12-02T22:21:27.340Z,10.69
2018-12-02T22:24:01.246Z,10.78
2018-12-02T22:26:30.815Z,10.79
2018-12-02T22:29:01.715Z,10.76
2018-12-02T22:31:34.257Z,10.83
2018-12-02T22:34:05.378Z,10.82
2018-12-02T22:36:36.244Z,11.04
2018-12-02T22:39:09.267Z,11.07
2018-12-02T22:41:42.884Z,11.01
2018-12-02T22:44:16.352Z,11.01
2018-12-02T22:46:47.310Z,11.06
2018-12-02T22:49:24.137Z,11.07
2018-12-02T22:51:56.364Z,11.06
2018-12-02T22:57:20.249Z,11.00
2018-12-02T22:59:51.071Z,11.08
2018-12-02T23:02:27.722Z,11.05
2018-12-02T23:04:58.686Z,11.22
2018-12-02T23:07:38.278Z,11.22
2018-12-02T23:10:09.718Z,11.26
2018-12-02T23:12:41.462Z,11.27
2018-12-02T23:15:26.285Z,11.26
2018-12-02T23:17:57.197Z,11.47
2018-12-02T23:20:28.535Z,11.48
2018-12-02T23:23:02.735Z,11.49
2018-12-02T23:25:55.472Z,11.44
2018-12-02T23:30:16.151Z,11.51
2018-12-02T23:32:51.372Z,11.46
2018-12-02T23:35:57.357Z,11.53
2018-12-02T23:41:05.231Z,11.67
2018-12-02T23:43:38.036Z,11.59
2018-12-02T23:46:09.074Z,11.65
2018-12-02T23:54:06.838Z,11.48
2018-12-02T23:56:38.068Z,11.41
2018-12-02T23:59:08.901Z,11.29
